Portada
METAR-TAF:

METAR-TAF

Aeroports :

Sullivan County International Airport

Monticello, Nova York, Estats Units d'Amèrica

latitud: 41-42N, longitud: 074-48W, altitud: 428 m

Observació

L'informe es va fer fa 31 minuts, a les 02:56 UTC
Vent 5 kt del Sud-Oest
Temperatura 5°C
Humitat 75%
Pressió 1012 hPa
Visibilitat: 16.1 km
Cel cobert a una alçada de 9500 ft

METAR: KMSV 050256Z AUTO 22005KT 10SM OVC095 05/01 A2989 RMK AO2 SLP129 T00500006 50004

Hora: 22:27 (03:27 UTC)


TAF: manca

Observacions i pronòstics meteorològics de més de 4000 aeroports (METAR i TAF).

Les estacions disponibles són els punts grocs i vermells al mapa.

Posi el ratolí al punt desitjat per veure el nom de l'estació.

Feu clic per veure les observacions i els pronòstics meteorològics.

Per canviar el mapa: feu clic els botons verds amb una creu de color negre per apropar; al botó verd amb un guió per allunyar la imatge; o en les fletxes verdes per a mapes adjacents.


METAR-TAF: